Time;durP1;ratioP1;P1;durP2;ratioP2;P2;SDS_P1;SDS_P2;PMS_P1;PMS_P2;Temp;Humidity;BMP_temperature;BMP_pressure;BME280_temperature;BME280_humidity;BME280_pressure;Samples;Min_cycle;Max_cycle;Signal;HPM_P1;HPM_P2
2020/12/30 00:01:01;;;;;;;;;20.25;20.00;;;;;;;;4945554;28;11502;-82
2020/12/30 00:03:29;;;;;;;;;25.00;22.00;;;;;;;;4966251;28;11505;-82
2020/12/30 00:05:56;;;;;;;;;17.00;17.00;;;;;;;;4945766;28;11564;-82
2020/12/30 00:08:23;;;;;;;;;16.25;16.25;;;;;;;;4945981;28;11561;-81
2020/12/30 00:10:50;;;;;;;;;16.75;15.75;;;;;;;;4955221;28;11600;-83
2020/12/30 00:13:18;;;;;;;;;14.50;14.50;;;;;;;;4946674;28;12344;-81
2020/12/30 00:15:44;;;;;;;;;20.50;20.50;;;;;;;;4952932;28;11656;-81
2020/12/30 00:18:11;;;;;;;;;19.50;19.50;;;;;;;;4951839;28;11586;-84
2020/12/30 00:20:39;;;;;;;;;25.75;23.00;;;;;;;;4954989;28;11707;-84
2020/12/30 00:23:06;;;;;;;;;29.50;26.00;;;;;;;;4949443;28;11540;-84
2020/12/30 00:25:33;;;;;;;;;28.75;24.50;;;;;;;;4944990;28;11621;-81
2020/12/30 00:28:00;;;;;;;;;20.25;18.25;;;;;;;;4948639;28;11581;-83
2020/12/30 00:30:27;;;;;;;;;34.25;24.00;;;;;;;;4944911;28;11631;-83
2020/12/30 00:32:54;;;;;;;;;19.50;16.00;;;;;;;;4946511;28;11640;-83
2020/12/30 00:35:20;;;;;;;;;24.00;23.50;;;;;;;;4959050;28;11619;-83
2020/12/30 00:37:48;;;;;;;;;28.50;25.75;;;;;;;;4948509;28;11627;-81
2020/12/30 00:40:15;;;;;;;;;31.25;29.75;;;;;;;;4954660;28;11554;-81
2020/12/30 00:42:42;;;;;;;;;35.25;30.75;;;;;;;;4947266;28;11571;-82
2020/12/30 00:45:10;;;;;;;;;26.50;23.25;;;;;;;;4915769;28;11673;-81
2020/12/30 00:47:37;;;;;;;;;29.25;26.50;;;;;;;;4949223;28;11615;-80
2020/12/30 00:50:05;;;;;;;;;30.25;30.00;;;;;;;;4955733;28;11616;-79
2020/12/30 00:52:32;;;;;;;;;27.75;25.75;;;;;;;;4926976;28;11603;-80
2020/12/30 00:55:00;;;;;;;;;31.50;25.00;;;;;;;;4946850;28;11651;-82
2020/12/30 00:57:27;;;;;;;;;25.25;21.25;;;;;;;;4954297;28;11629;-79
2020/12/30 00:59:54;;;;;;;;;28.00;23.00;;;;;;;;4945585;28;12355;-80
2020/12/30 01:02:21;;;;;;;;;16.25;15.25;;;;;;;;4945551;28;11588;-79
2020/12/30 01:04:48;;;;;;;;;15.25;13.75;;;;;;;;4953742;28;11591;-83
2020/12/30 01:07:17;;;;;;;;;4.00;4.00;;;;;;;;4930006;28;13030;-84
2020/12/30 01:09:44;;;;;;;;;14.50;13.25;;;;;;;;4933896;28;11681;-83
2020/12/30 01:12:12;;;;;;;;;11.75;10.50;;;;;;;;4945147;28;11633;-83
2020/12/30 01:14:39;;;;;;;;;8.25;8.00;;;;;;;;4954458;28;11563;-84
2020/12/30 01:17:07;;;;;;;;;9.25;8.50;;;;;;;;4941205;28;11544;-82
2020/12/30 01:19:33;;;;;;;;;9.00;9.00;;;;;;;;4949637;28;12358;-82
2020/12/30 01:22:00;;;;;;;;;8.25;8.25;;;;;;;;4954885;28;11588;-81
2020/12/30 01:24:27;;;;;;;;;11.00;11.00;;;;;;;;4949019;28;12302;-80
2020/12/30 01:26:54;;;;;;;;;9.50;9.50;;;;;;;;4944277;28;11687;-83
2020/12/30 01:29:22;;;;;;;;;10.50;8.25;;;;;;;;4933406;29;12340;-81
2020/12/30 01:31:49;;;;;;;;;8.25;6.00;;;;;;;;4948798;28;11504;-84
2020/12/30 01:34:16;;;;;;;;;9.75;9.75;;;;;;;;4948786;28;12257;-84
2020/12/30 01:36:43;;;;;;;;;8.00;8.00;;;;;;;;4950741;28;11515;-85
2020/12/30 01:39:10;;;;;;;;;6.25;6.25;;;;;;;;4938237;28;11517;-80
2020/12/30 01:41:37;;;;;;;;;9.00;9.00;;;;;;;;4949757;28;11501;-84
2020/12/30 01:44:05;;;;;;;;;10.25;9.00;;;;;;;;4934264;28;11521;-81
2020/12/30 01:46:39;;;;;;;;;6.50;4.00;;;;;;;;4948741;28;11586;-81
2020/12/30 01:49:08;;;;;;;;;14.75;10.00;;;;;;;;4943322;28;11581;-81
2020/12/30 01:51:36;;;;;;;;;11.25;9.00;;;;;;;;4947181;28;11589;-82
2020/12/30 01:54:03;;;;;;;;;12.00;12.00;;;;;;;;4957096;28;11626;-82
2020/12/30 01:56:33;;;;;;;;;12.50;8.50;;;;;;;;4948807;28;11646;-81
2020/12/30 01:59:00;;;;;;;;;9.00;8.75;;;;;;;;4950006;28;11519;-81
2020/12/30 02:01:29;;;;;;;;;6.75;6.75;;;;;;;;4947236;28;11537;-82
2020/12/30 02:03:58;;;;;;;;;8.75;8.75;;;;;;;;4932997;28;12282;-84
2020/12/30 02:06:26;;;;;;;;;8.00;8.00;;;;;;;;4952548;28;11555;-83
2020/12/30 02:08:53;;;;;;;;;14.00;11.75;;;;;;;;4954833;28;11634;-80
2020/12/30 02:11:24;;;;;;;;;8.50;4.75;;;;;;;;4948922;28;11556;-83
2020/12/30 02:14:03;;;;;;;;;8.50;8.50;;;;;;;;4950555;28;11670;-81
2020/12/30 02:16:30;;;;;;;;;9.00;9.00;;;;;;;;4948480;28;11607;-81
2020/12/30 02:18:58;;;;;;;;;20.25;16.00;;;;;;;;4929508;28;11633;-81
2020/12/30 02:21:26;;;;;;;;;20.75;15.00;;;;;;;;4952267;28;11584;-82
2020/12/30 02:23:55;;;;;;;;;23.00;20.50;;;;;;;;4953350;28;11607;-80
2020/12/30 02:26:23;;;;;;;;;17.75;15.00;;;;;;;;4949444;28;11613;-81
2020/12/30 02:28:50;;;;;;;;;20.25;18.75;;;;;;;;4942531;28;11600;-81
2020/12/30 02:31:17;;;;;;;;;25.75;23.00;;;;;;;;4930206;28;11559;-82
2020/12/30 02:33:43;;;;;;;;;33.00;27.25;;;;;;;;4953586;28;11579;-81
2020/12/30 02:36:10;;;;;;;;;27.00;25.00;;;;;;;;4958371;28;11656;-81
2020/12/30 02:38:37;;;;;;;;;37.00;29.00;;;;;;;;4958424;28;11614;-81
2020/12/30 02:41:05;;;;;;;;;29.25;22.00;;;;;;;;4954295;28;11611;-86
2020/12/30 02:43:33;;;;;;;;;34.50;34.00;;;;;;;;4950007;28;11603;-86
2020/12/30 02:46:00;;;;;;;;;28.50;28.50;;;;;;;;4953370;28;11583;-85
2020/12/30 02:48:27;;;;;;;;;27.75;25.25;;;;;;;;4951360;28;11625;-84
2020/12/30 02:50:54;;;;;;;;;24.50;22.50;;;;;;;;4954792;28;11600;-83
2020/12/30 02:53:21;;;;;;;;;31.75;30.00;;;;;;;;4954631;28;11594;-84
2020/12/30 02:55:48;;;;;;;;;32.75;29.25;;;;;;;;4955384;28;11610;-85
2020/12/30 02:58:14;;;;;;;;;39.00;36.25;;;;;;;;4932465;28;11713;-85
2020/12/30 03:00:42;;;;;;;;;42.50;41.50;;;;;;;;4956070;28;12040;-85
2020/12/30 03:03:10;;;;;;;;;32.00;24.25;;;;;;;;4948435;28;11554;-86
2020/12/30 03:05:37;;;;;;;;;35.25;35.25;;;;;;;;4948263;28;11664;-84
2020/12/30 03:08:04;;;;;;;;;30.25;29.00;;;;;;;;4931572;28;12443;-83
2020/12/30 03:10:31;;;;;;;;;28.00;20.75;;;;;;;;4953829;28;12430;-84
2020/12/30 03:12:58;;;;;;;;;32.50;32.00;;;;;;;;4949091;28;11728;-87
2020/12/30 03:15:25;;;;;;;;;32.00;28.25;;;;;;;;4951013;28;11646;-83
2020/12/30 03:17:52;;;;;;;;;35.00;31.50;;;;;;;;4947100;28;11615;-84
2020/12/30 03:20:19;;;;;;;;;32.00;29.00;;;;;;;;4948914;28;12329;-83
2020/12/30 03:22:46;;;;;;;;;39.50;37.00;;;;;;;;4958502;28;11623;-83
2020/12/30 03:25:13;;;;;;;;;57.50;49.75;;;;;;;;4929682;28;11564;-86
2020/12/30 03:27:40;;;;;;;;;43.25;37.25;;;;;;;;4948357;28;11613;-83
2020/12/30 03:30:06;;;;;;;;;43.50;31.25;;;;;;;;4956183;28;11633;-82
2020/12/30 03:32:33;;;;;;;;;18.50;14.75;;;;;;;;4948757;28;11585;-84
2020/12/30 03:35:01;;;;;;;;;45.75;40.50;;;;;;;;4942885;28;11629;-83
2020/12/30 03:37:28;;;;;;;;;24.50;18.25;;;;;;;;4941245;28;11592;-84
2020/12/30 03:39:58;;;;;;;;;35.00;32.75;;;;;;;;4953636;28;11618;-85
2020/12/30 03:42:25;;;;;;;;;30.25;23.75;;;;;;;;4957600;28;11675;-84
2020/12/30 03:44:51;;;;;;;;;15.00;14.50;;;;;;;;4961871;28;11602;-84
2020/12/30 03:47:18;;;;;;;;;19.50;18.00;;;;;;;;4949423;28;11591;-86
2020/12/30 03:49:45;;;;;;;;;29.00;25.50;;;;;;;;4945811;28;11610;-87
2020/12/30 03:52:13;;;;;;;;;14.25;14.00;;;;;;;;4949519;28;11584;-86
2020/12/30 03:54:40;;;;;;;;;14.75;14.75;;;;;;;;4947502;28;11560;-86
2020/12/30 03:57:07;;;;;;;;;20.25;19.00;;;;;;;;4953310;28;11539;-83
2020/12/30 03:59:34;;;;;;;;;22.75;20.50;;;;;;;;4947807;28;12204;-85
2020/12/30 04:02:01;;;;;;;;;23.50;22.00;;;;;;;;4952641;28;11562;-85
2020/12/30 04:04:28;;;;;;;;;21.25;18.75;;;;;;;;4948591;28;11650;-86
2020/12/30 04:06:55;;;;;;;;;18.75;13.75;;;;;;;;4948978;28;11548;-83
2020/12/30 04:16:26;;;;;;;;;15.75;11.00;;;;;;;;4947609;28;11485;-84
2020/12/30 04:18:53;;;;;;;;;24.00;18.75;;;;;;;;4949853;28;11672;-86
2020/12/30 04:21:21;;;;;;;;;25.25;22.00;;;;;;;;4944914;28;11597;-87
2020/12/30 04:23:48;;;;;;;;;30.75;27.25;;;;;;;;4951079;28;11607;-84
2020/12/30 04:26:16;;;;;;;;;28.50;25.50;;;;;;;;4929044;28;11544;-84
2020/12/30 04:28:43;;;;;;;;;23.00;21.25;;;;;;;;4946898;28;11631;-84
2020/12/30 04:31:10;;;;;;;;;22.50;18.25;;;;;;;;4948965;28;11522;-84
2020/12/30 04:33:37;;;;;;;;;28.25;24.00;;;;;;;;4951400;28;12387;-84
2020/12/30 04:36:04;;;;;;;;;21.50;20.00;;;;;;;;4949490;28;11550;-82
2020/12/30 04:38:32;;;;;;;;;22.00;22.00;;;;;;;;4944771;28;12353;-81
2020/12/30 04:41:00;;;;;;;;;27.25;18.00;;;;;;;;4958594;28;11614;-84
2020/12/30 04:44:19;;;;;;;;;20.25;17.50;;;;;;;;4946617;28;11686;-84
2020/12/30 04:50:55;;;;;;;;;21.00;18.00;;;;;;;;4944877;28;11588;-83
2020/12/30 04:54:13;;;;;;;;;28.00;25.25;;;;;;;;4945431;28;11510;-82
2020/12/30 05:09:12;;;;;;;;;23.25;17.50;;;;;;;;4883842;29;11739;-85
2020/12/30 05:11:39;;;;;;;;;11.00;11.00;;;;;;;;4837336;29;11624;-82
2020/12/30 05:14:07;;;;;;;;;29.00;18.50;;;;;;;;4883740;29;11667;-80
2020/12/30 05:16:35;;;;;;;;;17.75;16.50;;;;;;;;4938339;28;11784;-85
2020/12/30 05:19:04;;;;;;;;;9.75;9.75;;;;;;;;4953442;28;11686;-82
2020/12/30 05:21:31;;;;;;;;;15.50;14.00;;;;;;;;4945877;28;11573;-81
2020/12/30 05:23:58;;;;;;;;;22.00;18.00;;;;;;;;4946032;28;11540;-83
2020/12/30 05:26:25;;;;;;;;;23.50;21.00;;;;;;;;4925261;28;11630;-84
2020/12/30 05:28:54;;;;;;;;;16.00;16.00;;;;;;;;4954780;28;11641;-85
2020/12/30 05:31:21;;;;;;;;;22.50;18.25;;;;;;;;4944483;28;11561;-82
2020/12/30 05:33:48;;;;;;;;;20.75;18.50;;;;;;;;4947396;28;11617;-82
2020/12/30 05:36:15;;;;;;;;;18.00;15.75;;;;;;;;4945129;28;12253;-78
2020/12/30 05:38:43;;;;;;;;;21.00;17.00;;;;;;;;4944752;28;11612;-80
2020/12/30 05:41:18;;;;;;;;;9.00;6.50;;;;;;;;4945305;28;11588;-81
2020/12/30 05:43:45;;;;;;;;;21.75;14.25;;;;;;;;4944043;28;11581;-80
2020/12/30 05:46:26;;;;;;;;;16.75;16.75;;;;;;;;4946469;28;11600;-80
2020/12/30 05:48:53;;;;;;;;;21.75;21.00;;;;;;;;4940781;28;11625;-81
2020/12/30 05:51:27;;;;;;;;;18.25;18.25;;;;;;;;4945465;28;12360;-82
2020/12/30 05:54:10;;;;;;;;;29.25;25.00;;;;;;;;4944902;28;11557;-82
2020/12/30 05:56:38;;;;;;;;;22.25;18.75;;;;;;;;4942520;28;11622;-81
2020/12/30 05:59:05;;;;;;;;;24.50;22.25;;;;;;;;4948627;28;11602;-82
2020/12/30 06:01:35;;;;;;;;;1.25;1.25;;;;;;;;4926488;29;11566;-82
2020/12/30 06:04:16;;;;;;;;;23.75;18.50;;;;;;;;4945765;28;11560;-82
2020/12/30 06:06:44;;;;;;;;;22.75;17.25;;;;;;;;4933833;28;11585;-82
2020/12/30 06:09:18;;;;;;;;;36.50;25.00;;;;;;;;4944651;28;11566;-82
2020/12/30 06:11:52;;;;;;;;;22.00;19.50;;;;;;;;4932467;28;11569;-84
2020/12/30 06:14:19;;;;;;;;;26.75;20.75;;;;;;;;4938892;28;11539;-83
2020/12/30 06:16:48;;;;;;;;;14.00;14.00;;;;;;;;4948542;28;11640;-84
2020/12/30 06:19:15;;;;;;;;;21.00;19.75;;;;;;;;4944530;28;11652;-82
2020/12/30 06:21:44;;;;;;;;;12.00;11.00;;;;;;;;4944787;28;11617;-80
2020/12/30 06:24:13;;;;;;;;;23.50;23.50;;;;;;;;4944604;28;11579;-83
2020/12/30 06:26:40;;;;;;;;;19.25;19.25;;;;;;;;4944174;28;11603;-82
2020/12/30 06:29:12;;;;;;;;;20.50;20.50;;;;;;;;4945687;28;11596;-84
2020/12/30 06:31:48;;;;;;;;;23.00;23.00;;;;;;;;4959597;28;12042;-80
2020/12/30 06:34:16;;;;;;;;;26.33;26.00;;;;;;;;4928148;28;11588;-82
2020/12/30 06:36:45;;;;;;;;;20.33;20.33;;;;;;;;4944909;28;11641;-80
2020/12/30 06:39:19;;;;;;;;;33.33;33.33;;;;;;;;4948473;28;11611;-80
2020/12/30 06:41:58;;;;;;;;;21.00;21.00;;;;;;;;4946402;28;11733;-80
2020/12/30 06:44:38;;;;;;;;;27.00;24.50;;;;;;;;4947184;28;12420;-82
2020/12/30 06:47:07;;;;;;;;;20.00;19.00;;;;;;;;4948853;28;11548;-82
2020/12/30 06:49:34;;;;;;;;;28.25;26.75;;;;;;;;4961718;28;11757;-81
2020/12/30 06:52:01;;;;;;;;;26.00;24.00;;;;;;;;4948680;28;11580;-82
2020/12/30 06:54:47;;;;;;;;;18.50;18.50;;;;;;;;4933803;28;11671;-82
2020/12/30 06:57:36;;;;;;;;;30.50;28.50;;;;;;;;4947004;28;11645;-82
2020/12/30 07:00:33;;;;;;;;;25.50;25.50;;;;;;;;4949022;28;11615;-83
2020/12/30 07:03:16;;;;;;;;;34.75;31.00;;;;;;;;4938511;28;11597;-82
2020/12/30 07:05:44;;;;;;;;;31.50;28.50;;;;;;;;4946450;28;11597;-73
2020/12/30 07:08:11;;;;;;;;;25.25;23.00;;;;;;;;4946377;28;11591;-74
2020/12/30 07:10:42;;;;;;;;;24.00;24.00;;;;;;;;4942492;28;11609;-72
2020/12/30 07:13:09;;;;;;;;;32.00;27.75;;;;;;;;4950636;28;11595;-72
2020/12/30 07:15:36;;;;;;;;;26.25;21.75;;;;;;;;4949211;28;12331;-74
2020/12/30 07:18:05;;;;;;;;;34.25;23.50;;;;;;;;4946624;28;11597;-74
2020/12/30 07:20:42;;;;;;;;;21.50;17.00;;;;;;;;4946746;28;11620;-73
2020/12/30 07:23:12;;;;;;;;;23.75;21.50;;;;;;;;4945787;28;11762;-74
2020/12/30 07:25:39;;;;;;;;;37.00;23.50;;;;;;;;4947432;28;11585;-74
2020/12/30 07:28:06;;;;;;;;;25.25;20.00;;;;;;;;4945665;28;11643;-74
2020/12/30 07:30:34;;;;;;;;;27.00;24.00;;;;;;;;4947046;28;11668;-73
2020/12/30 07:33:01;;;;;;;;;30.25;23.25;;;;;;;;4945994;28;11555;-73
2020/12/30 07:35:27;;;;;;;;;31.25;21.50;;;;;;;;4949580;28;11629;-74
2020/12/30 07:38:01;;;;;;;;;24.00;23.50;;;;;;;;4953082;28;11640;-74
2020/12/30 07:40:28;;;;;;;;;32.25;28.00;;;;;;;;4949988;28;11602;-74
2020/12/30 07:42:59;;;;;;;;;28.75;26.75;;;;;;;;4952044;28;11600;-74
2020/12/30 07:45:26;;;;;;;;;23.00;17.75;;;;;;;;4952194;28;11736;-73
2020/12/30 07:47:53;;;;;;;;;29.75;28.00;;;;;;;;4947051;28;11653;-73
2020/12/30 07:50:19;;;;;;;;;35.25;31.75;;;;;;;;4952442;28;11626;-73
2020/12/30 07:52:52;;;;;;;;;27.50;23.00;;;;;;;;4956408;28;11653;-73
2020/12/30 07:55:26;;;;;;;;;30.00;23.50;;;;;;;;4945297;28;11603;-73
2020/12/30 07:57:56;;;;;;;;;35.67;29.67;;;;;;;;4937825;28;11612;-72
2020/12/30 08:00:23;;;;;;;;;36.00;33.00;;;;;;;;4946901;28;11602;-73
2020/12/30 08:02:54;;;;;;;;;31.75;24.50;;;;;;;;4947919;28;11673;-74
2020/12/30 08:05:21;;;;;;;;;34.67;32.33;;;;;;;;4946595;28;11604;-71
2020/12/30 08:07:48;;;;;;;;;28.00;25.67;;;;;;;;4945675;28;11542;-72
2020/12/30 08:10:22;;;;;;;;;20.67;20.67;;;;;;;;4946723;28;11622;-71
2020/12/30 08:12:50;;;;;;;;;43.00;41.33;;;;;;;;4945218;28;11658;-73
2020/12/30 08:15:16;;;;;;;;;34.50;27.25;;;;;;;;4950540;28;11570;-72
2020/12/30 08:17:43;;;;;;;;;37.67;30.67;;;;;;;;4945903;28;11611;-72
2020/12/30 08:20:10;;;;;;;;;30.00;27.67;;;;;;;;4944841;28;11630;-72
2020/12/30 08:22:36;;;;;;;;;31.25;25.50;;;;;;;;4945351;28;11596;-71
2020/12/30 08:25:05;;;;;;;;;28.50;25.75;;;;;;;;4944304;28;11646;-72
2020/12/30 08:27:32;;;;;;;;;25.25;25.25;;;;;;;;4944901;28;11628;-71
2020/12/30 08:30:01;;;;;;;;;33.00;25.00;;;;;;;;4945710;28;11602;-71
2020/12/30 08:32:42;;;;;;;;;25.75;25.75;;;;;;;;4945569;28;11611;-72
2020/12/30 08:35:10;;;;;;;;;28.00;23.75;;;;;;;;4945895;28;11646;-72
2020/12/30 08:37:39;;;;;;;;;34.75;29.50;;;;;;;;4943803;28;11690;-71
2020/12/30 08:40:15;;;;;;;;;30.75;27.75;;;;;;;;4946737;28;12386;-71
2020/12/30 08:43:08;;;;;;;;;36.00;29.50;;;;;;;;4944376;28;11615;-71
2020/12/30 08:45:37;;;;;;;;;35.25;27.75;;;;;;;;4933671;28;12295;-70
2020/12/30 08:48:12;;;;;;;;;27.25;25.00;;;;;;;;4945206;28;11607;-71
2020/12/30 08:50:39;;;;;;;;;28.75;24.25;;;;;;;;4945233;28;11649;-72
2020/12/30 08:53:06;;;;;;;;;27.00;25.25;;;;;;;;4945704;28;11619;-72
2020/12/30 08:55:32;;;;;;;;;33.00;29.00;;;;;;;;4943959;28;11755;-72
2020/12/30 08:57:59;;;;;;;;;24.00;22.50;;;;;;;;4944968;28;11627;-72
2020/12/30 09:00:27;;;;;;;;;33.25;32.25;;;;;;;;4943392;28;11534;-71
2020/12/30 09:02:55;;;;;;;;;29.75;26.00;;;;;;;;4945273;28;11581;-71
2020/12/30 09:05:29;;;;;;;;;32.50;28.00;;;;;;;;4942801;28;11598;-71
2020/12/30 09:08:00;;;;;;;;;34.50;31.25;;;;;;;;4944206;28;11682;-72
2020/12/30 09:10:34;;;;;;;;;29.50;28.50;;;;;;;;4944703;28;11681;-72
2020/12/30 09:13:11;;;;;;;;;35.50;34.00;;;;;;;;4946153;28;11622;-71
2020/12/30 09:15:39;;;;;;;;;23.00;22.25;;;;;;;;4945637;28;11607;-72
2020/12/30 09:18:07;;;;;;;;;27.25;27.25;;;;;;;;4927642;28;11575;-72
2020/12/30 09:20:34;;;;;;;;;28.00;27.00;;;;;;;;4944952;28;12418;-71
2020/12/30 09:23:01;;;;;;;;;39.25;31.00;;;;;;;;4945013;28;11579;-71
2020/12/30 09:25:29;;;;;;;;;29.50;27.75;;;;;;;;4950983;28;11591;-72
2020/12/30 09:27:57;;;;;;;;;36.75;27.50;;;;;;;;4946553;28;11638;-72
2020/12/30 09:30:26;;;;;;;;;37.75;28.50;;;;;;;;4944292;28;11545;-71
2020/12/30 09:32:54;;;;;;;;;42.00;31.25;;;;;;;;4945027;28;11619;-71
2020/12/30 09:35:29;;;;;;;;;28.50;26.50;;;;;;;;4944902;28;11589;-72
2020/12/30 09:37:56;;;;;;;;;32.50;29.75;;;;;;;;4944032;28;12447;-71
2020/12/30 09:40:24;;;;;;;;;31.00;25.25;;;;;;;;4947964;28;11629;-71
2020/12/30 09:42:51;;;;;;;;;32.00;26.25;;;;;;;;4943881;28;11609;-72
2020/12/30 09:45:19;;;;;;;;;35.50;27.25;;;;;;;;4945720;28;11665;-72
2020/12/30 09:47:47;;;;;;;;;31.75;27.25;;;;;;;;4951153;28;11604;-72
2020/12/30 09:50:15;;;;;;;;;29.50;29.25;;;;;;;;4949973;28;12395;-71
2020/12/30 09:52:44;;;;;;;;;24.50;21.50;;;;;;;;4944617;28;11602;-72
2020/12/30 09:55:13;;;;;;;;;34.00;31.00;;;;;;;;4954991;28;11699;-72
2020/12/30 09:57:41;;;;;;;;;26.25;26.25;;;;;;;;4944333;28;11612;-73
2020/12/30 10:00:09;;;;;;;;;37.75;31.25;;;;;;;;4951996;28;11647;-72
2020/12/30 10:02:36;;;;;;;;;34.50;29.75;;;;;;;;4946708;28;11609;-72
2020/12/30 10:05:02;;;;;;;;;25.50;25.50;;;;;;;;4944062;28;11644;-71
2020/12/30 10:07:29;;;;;;;;;31.75;30.00;;;;;;;;4945859;28;11634;-72
2020/12/30 10:09:57;;;;;;;;;25.00;24.50;;;;;;;;4945512;28;11596;-71
2020/12/30 10:12:24;;;;;;;;;32.25;27.50;;;;;;;;4946088;28;11619;-72
2020/12/30 10:14:51;;;;;;;;;26.50;25.75;;;;;;;;4948829;28;11612;-71
2020/12/30 10:17:17;;;;;;;;;28.25;25.25;;;;;;;;4947411;28;11620;-72
2020/12/30 10:19:44;;;;;;;;;36.00;25.00;;;;;;;;4948311;28;11608;-72
2020/12/30 10:22:12;;;;;;;;;36.25;33.50;;;;;;;;4947386;28;11702;-72
2020/12/30 10:24:44;;;;;;;;;31.75;29.25;;;;;;;;4938980;28;11638;-72
2020/12/30 10:27:12;;;;;;;;;36.50;30.00;;;;;;;;4945991;28;12307;-72
2020/12/30 10:29:39;;;;;;;;;39.25;33.25;;;;;;;;4946880;28;11571;-72
2020/12/30 10:32:07;;;;;;;;;36.25;31.00;;;;;;;;4947352;28;11669;-72
2020/12/30 10:34:35;;;;;;;;;32.50;29.75;;;;;;;;4947649;28;11699;-71
2020/12/30 10:37:02;;;;;;;;;33.75;23.25;;;;;;;;4945737;28;11626;-72
2020/12/30 10:39:28;;;;;;;;;29.25;25.75;;;;;;;;4943613;28;11602;-72
2020/12/30 10:41:55;;;;;;;;;34.25;32.25;;;;;;;;4945960;28;12278;-73
2020/12/30 10:44:23;;;;;;;;;31.25;29.00;;;;;;;;4944147;28;11604;-72
2020/12/30 10:46:50;;;;;;;;;33.50;28.50;;;;;;;;4946336;28;11550;-73
2020/12/30 10:49:17;;;;;;;;;35.25;31.25;;;;;;;;4947254;28;11591;-76
2020/12/30 10:51:46;;;;;;;;;35.75;32.50;;;;;;;;4946884;28;11625;-72
2020/12/30 10:54:12;;;;;;;;;30.00;25.75;;;;;;;;4946718;28;11614;-72
2020/12/30 10:56:39;;;;;;;;;32.25;30.00;;;;;;;;4944067;28;11685;-72
2020/12/30 10:59:06;;;;;;;;;30.75;27.75;;;;;;;;4947080;28;11635;-74
2020/12/30 11:01:33;;;;;;;;;34.00;29.25;;;;;;;;4949573;28;11824;-72
2020/12/30 11:04:00;;;;;;;;;35.00;31.50;;;;;;;;4947366;28;11616;-73
2020/12/30 11:06:26;;;;;;;;;38.50;32.25;;;;;;;;4947092;28;11623;-72
2020/12/30 11:08:53;;;;;;;;;29.00;26.75;;;;;;;;4953784;28;11665;-72
2020/12/30 11:11:20;;;;;;;;;26.25;22.00;;;;;;;;4945021;28;11694;-71
2020/12/30 11:13:48;;;;;;;;;25.00;25.00;;;;;;;;4946207;28;11600;-72
2020/12/30 11:16:15;;;;;;;;;33.50;27.75;;;;;;;;4957866;28;11687;-72
2020/12/30 11:18:43;;;;;;;;;31.00;27.25;;;;;;;;4944499;28;11706;-72
2020/12/30 11:21:10;;;;;;;;;28.75;26.75;;;;;;;;4947407;28;11624;-70
2020/12/30 11:23:37;;;;;;;;;25.50;22.50;;;;;;;;4951979;28;11602;-71
2020/12/30 11:26:04;;;;;;;;;21.00;20.25;;;;;;;;4944314;28;11538;-72
2020/12/30 11:28:30;;;;;;;;;25.00;22.25;;;;;;;;4942769;28;11635;-70
2020/12/30 11:30:57;;;;;;;;;22.25;22.00;;;;;;;;4946772;28;12364;-73
2020/12/30 11:33:24;;;;;;;;;25.50;21.00;;;;;;;;4944716;28;11531;-74
2020/12/30 11:35:51;;;;;;;;;24.25;20.25;;;;;;;;4933406;28;11624;-74
2020/12/30 11:38:18;;;;;;;;;20.50;18.00;;;;;;;;4945995;28;11518;-71
2020/12/30 11:40:45;;;;;;;;;26.25;24.75;;;;;;;;4940681;28;11554;-72
2020/12/30 11:43:12;;;;;;;;;27.00;22.75;;;;;;;;4946007;28;12446;-73
2020/12/30 11:45:38;;;;;;;;;19.25;16.50;;;;;;;;4946294;28;11550;-71
2020/12/30 11:48:05;;;;;;;;;20.75;19.50;;;;;;;;4943805;28;11605;-73
2020/12/30 11:50:33;;;;;;;;;18.75;16.00;;;;;;;;4945931;28;11582;-71
2020/12/30 11:53:01;;;;;;;;;17.00;15.25;;;;;;;;4942099;28;12551;-71
2020/12/30 11:55:28;;;;;;;;;24.50;24.50;;;;;;;;4955945;28;11590;-73
2020/12/30 11:57:54;;;;;;;;;20.75;15.00;;;;;;;;4945670;28;11605;-72
2020/12/30 12:00:21;;;;;;;;;16.75;16.75;;;;;;;;4949243;28;11877;-72
2020/12/30 12:02:48;;;;;;;;;17.50;17.00;;;;;;;;4945197;28;11554;-74
2020/12/30 12:05:16;;;;;;;;;16.75;16.75;;;;;;;;4946304;28;11597;-70
2020/12/30 12:07:43;;;;;;;;;19.00;16.00;;;;;;;;4948997;28;11521;-71
2020/12/30 12:10:11;;;;;;;;;19.50;15.25;;;;;;;;4951660;28;11562;-71
2020/12/30 12:12:39;;;;;;;;;21.50;18.25;;;;;;;;4948419;28;11562;-72
2020/12/30 12:15:06;;;;;;;;;18.50;18.50;;;;;;;;4956254;28;11555;-71
2020/12/30 12:17:33;;;;;;;;;10.00;10.00;;;;;;;;4949028;28;11613;-72
2020/12/30 12:20:00;;;;;;;;;17.50;15.50;;;;;;;;4949160;28;11540;-71
2020/12/30 12:22:28;;;;;;;;;22.00;19.75;;;;;;;;4946467;28;11692;-71
2020/12/30 12:24:55;;;;;;;;;13.50;13.50;;;;;;;;4953656;28;11493;-72
2020/12/30 12:27:23;;;;;;;;;18.50;14.50;;;;;;;;4955581;28;11511;-72
2020/12/30 12:29:50;;;;;;;;;20.00;20.00;;;;;;;;4944790;28;12028;-71
2020/12/30 12:32:19;;;;;;;;;17.25;16.50;;;;;;;;4947597;28;11464;-71
2020/12/30 12:34:47;;;;;;;;;14.00;13.50;;;;;;;;4944592;28;11487;-71
2020/12/30 12:37:16;;;;;;;;;21.75;13.75;;;;;;;;4940997;28;12114;-71
2020/12/30 12:39:44;;;;;;;;;19.75;16.75;;;;;;;;4951102;28;11562;-72
2020/12/30 12:42:11;;;;;;;;;13.75;13.25;;;;;;;;4955180;28;11549;-73
2020/12/30 12:44:39;;;;;;;;;15.75;14.00;;;;;;;;4949288;28;12235;-71
2020/12/30 12:47:07;;;;;;;;;16.00;10.75;;;;;;;;4947826;28;11569;-72
2020/12/30 12:49:33;;;;;;;;;10.00;10.00;;;;;;;;4943891;28;11493;-72
2020/12/30 12:52:01;;;;;;;;;14.75;10.50;;;;;;;;4950950;28;11505;-71
2020/12/30 12:54:29;;;;;;;;;14.75;14.75;;;;;;;;4944620;28;11242;-71
2020/12/30 12:56:57;;;;;;;;;11.50;11.50;;;;;;;;4946659;28;11367;-72
2020/12/30 12:59:24;;;;;;;;;10.25;10.25;;;;;;;;4947798;28;11331;-72
2020/12/30 13:01:52;;;;;;;;;19.00;12.00;;;;;;;;4950967;28;11245;-72
2020/12/30 13:04:19;;;;;;;;;15.00;12.25;;;;;;;;4944929;28;11379;-71
2020/12/30 13:06:46;;;;;;;;;11.00;10.50;;;;;;;;4950249;28;11255;-71
2020/12/30 13:09:15;;;;;;;;;11.75;10.00;;;;;;;;4940410;28;11741;-72
2020/12/30 13:11:43;;;;;;;;;17.75;13.00;;;;;;;;4928589;28;11220;-71
2020/12/30 13:14:10;;;;;;;;;14.75;10.75;;;;;;;;4929921;28;11223;-72
2020/12/30 13:16:37;;;;;;;;;12.25;10.50;;;;;;;;4940397;28;11118;-72
2020/12/30 13:19:05;;;;;;;;;11.75;10.50;;;;;;;;4938419;28;11379;-72
2020/12/30 13:21:36;;;;;;;;;12.50;10.25;;;;;;;;4941331;28;11511;-71
2020/12/30 13:24:03;;;;;;;;;12.50;12.50;;;;;;;;4932790;28;11546;-71
2020/12/30 13:26:30;;;;;;;;;11.50;10.75;;;;;;;;4944673;28;11543;-71
2020/12/30 13:28:57;;;;;;;;;5.00;4.50;;;;;;;;4949980;28;11626;-71
2020/12/30 13:31:23;;;;;;;;;14.00;11.00;;;;;;;;4948256;28;11176;-72
2020/12/30 13:33:50;;;;;;;;;15.00;10.00;;;;;;;;4943331;28;11568;-70
2020/12/30 13:36:22;;;;;;;;;9.00;9.00;;;;;;;;4946322;28;11555;-72
2020/12/30 13:38:48;;;;;;;;;11.50;10.75;;;;;;;;4941220;28;11529;-72
2020/12/30 13:41:17;;;;;;;;;15.50;11.50;;;;;;;;4947537;28;11641;-71
2020/12/30 13:43:44;;;;;;;;;6.25;6.25;;;;;;;;4951025;28;11409;-72
2020/12/30 13:46:12;;;;;;;;;9.25;9.25;;;;;;;;4939772;28;11607;-71
2020/12/30 13:48:39;;;;;;;;;11.75;9.00;;;;;;;;4949609;28;11573;-71
2020/12/30 13:51:06;;;;;;;;;10.25;9.75;;;;;;;;4943994;28;12307;-71
2020/12/30 13:53:34;;;;;;;;;12.50;10.00;;;;;;;;4947644;28;12391;-71
2020/12/30 13:56:01;;;;;;;;;10.75;10.00;;;;;;;;4939005;28;11442;-72
2020/12/30 13:58:28;;;;;;;;;7.50;7.50;;;;;;;;4944491;28;11531;-72
2020/12/30 14:00:54;;;;;;;;;13.75;10.50;;;;;;;;4950303;28;11152;-71
2020/12/30 14:03:21;;;;;;;;;10.75;9.00;;;;;;;;4937778;28;12547;-71
2020/12/30 14:05:48;;;;;;;;;7.00;7.00;;;;;;;;4936159;28;11199;-71
2020/12/30 14:08:16;;;;;;;;;8.50;7.00;;;;;;;;4945803;28;10953;-69
2020/12/30 14:10:43;;;;;;;;;9.50;9.50;;;;;;;;4936556;28;11865;-69
2020/12/30 14:13:10;;;;;;;;;7.50;7.50;;;;;;;;4942517;28;11401;-69
2020/12/30 14:15:38;;;;;;;;;13.25;7.00;;;;;;;;4939990;28;11210;-70
2020/12/30 14:18:05;;;;;;;;;7.00;7.00;;;;;;;;4942382;28;11551;-69
2020/12/30 14:20:32;;;;;;;;;9.50;9.50;;;;;;;;4946186;28;11225;-71
2020/12/30 14:23:00;;;;;;;;;8.75;6.50;;;;;;;;4947714;28;11569;-71
2020/12/30 14:25:28;;;;;;;;;10.50;8.50;;;;;;;;4948843;28;11632;-73
2020/12/30 14:27:55;;;;;;;;;7.00;7.00;;;;;;;;4955475;28;11468;-72
2020/12/30 14:30:23;;;;;;;;;8.50;8.50;;;;;;;;4937633;28;11497;-72
2020/12/30 14:32:50;;;;;;;;;8.00;8.00;;;;;;;;4947306;28;11445;-72
2020/12/30 14:35:17;;;;;;;;;9.25;6.50;;;;;;;;4952324;28;11491;-72
2020/12/30 14:37:44;;;;;;;;;5.25;2.50;;;;;;;;4960562;28;11488;-73
2020/12/30 14:40:11;;;;;;;;;5.75;5.75;;;;;;;;4950813;28;11605;-73
2020/12/30 14:42:38;;;;;;;;;3.50;3.50;;;;;;;;4947359;28;11243;-72
2020/12/30 14:45:05;;;;;;;;;6.50;5.00;;;;;;;;4947091;28;11098;-73
2020/12/30 14:47:32;;;;;;;;;8.75;7.00;;;;;;;;4945141;28;11329;-72
2020/12/30 14:50:01;;;;;;;;;13.00;10.00;;;;;;;;4948278;28;11296;-73
2020/12/30 14:52:29;;;;;;;;;6.25;6.25;;;;;;;;4939236;28;11532;-72